createdAt,value
2018-03-26T00:00:59.024Z,7.42
2018-03-26T00:01:59.004Z,7.35
2018-03-26T00:02:58.989Z,7.42
2018-03-26T00:03:58.974Z,7.34
2018-03-26T00:04:58.949Z,7.37
2018-03-26T00:05:58.935Z,7.32
2018-03-26T00:06:58.914Z,7.42
2018-03-26T00:07:58.895Z,7.24
2018-03-26T00:08:58.873Z,7.23
2018-03-26T00:09:58.879Z,7.24
2018-03-26T00:10:58.839Z,7.25
2018-03-26T00:11:58.825Z,7.31
2018-03-26T00:12:58.813Z,7.25
2018-03-26T00:13:58.782Z,7.27
2018-03-26T00:14:58.763Z,7.25
2018-03-26T00:15:58.749Z,7.28
2018-03-26T00:16:58.734Z,7.30
2018-03-26T00:17:58.713Z,7.28
2018-03-26T00:18:58.690Z,7.30
2018-03-26T00:19:58.688Z,7.25
2018-03-26T00:20:58.653Z,7.24
2018-03-26T00:21:58.633Z,7.34
2018-03-26T00:22:58.618Z,7.30
2018-03-26T00:23:58.598Z,7.25
2018-03-26T00:24:58.582Z,7.30
2018-03-26T00:25:58.560Z,7.24
2018-03-26T00:26:58.539Z,7.30
2018-03-26T00:27:58.523Z,7.23
2018-03-26T00:28:58.505Z,7.28
2018-03-26T00:29:58.486Z,7.25
2018-03-26T00:30:58.467Z,7.27
2018-03-26T00:31:58.452Z,7.31
2018-03-26T00:32:58.428Z,7.25
2018-03-26T00:33:58.423Z,7.24
2018-03-26T00:34:58.393Z,7.13
2018-03-26T00:35:58.372Z,7.17
2018-03-26T00:36:58.353Z,7.05
2018-03-26T00:37:58.340Z,7.07
2018-03-26T00:38:58.330Z,7.02
2018-03-26T00:39:58.302Z,7.12
2018-03-26T00:40:58.279Z,7.15
2018-03-26T00:41:58.266Z,7.13
2018-03-26T00:42:58.241Z,7.15
2018-03-26T00:43:58.223Z,7.13
2018-03-26T00:44:58.206Z,7.12
2018-03-26T00:45:58.191Z,7.12
2018-03-26T00:46:58.170Z,7.10
2018-03-26T00:47:58.151Z,7.09
2018-03-26T00:48:58.131Z,7.13
2018-03-26T00:49:58.113Z,7.13
2018-03-26T00:50:58.098Z,7.13
2018-03-26T00:51:58.073Z,7.28
2018-03-26T00:52:58.057Z,7.21
2018-03-26T00:53:58.037Z,7.21
2018-03-26T00:54:58.019Z,7.13
2018-03-26T00:55:58.000Z,7.12
2018-03-26T00:56:58.024Z,7.15
2018-03-26T00:57:57.972Z,7.12
2018-03-26T00:58:57.943Z,7.28
2018-03-26T00:59:57.923Z,7.20
2018-03-26T01:00:57.903Z,7.13
2018-03-26T01:01:57.895Z,7.15
2018-03-26T01:02:57.864Z,7.16
2018-03-26T01:03:57.849Z,7.09
2018-03-26T01:04:57.826Z,7.13
2018-03-26T01:05:57.810Z,7.15
2018-03-26T01:06:57.790Z,7.10
2018-03-26T01:07:57.771Z,7.09
2018-03-26T01:08:57.752Z,7.13
2018-03-26T01:09:57.741Z,7.10
2018-03-26T01:10:57.717Z,7.12
2018-03-26T01:11:57.701Z,7.12
2018-03-26T01:12:57.699Z,7.13
2018-03-26T01:13:57.664Z,7.16
2018-03-26T01:14:57.647Z,7.16
2018-03-26T01:15:57.629Z,7.15
2018-03-26T01:16:57.603Z,7.06
2018-03-26T01:17:57.584Z,7.09
2018-03-26T01:18:57.567Z,7.05
2018-03-26T01:19:57.550Z,7.02
2018-03-26T01:20:57.527Z,7.07
2018-03-26T01:21:57.509Z,6.99
2018-03-26T01:22:57.494Z,6.94
2018-03-26T01:23:57.471Z,6.88
2018-03-26T01:24:57.459Z,6.94
2018-03-26T01:25:57.433Z,6.89
2018-03-26T01:26:57.414Z,6.88
2018-03-26T01:27:57.395Z,6.92
2018-03-26T01:28:57.376Z,6.88
2018-03-26T01:29:57.361Z,6.85
2018-03-26T01:30:57.343Z,6.95
2018-03-26T01:31:57.323Z,6.88
2018-03-26T01:32:57.303Z,6.91
2018-03-26T01:33:57.282Z,6.76
2018-03-26T01:34:57.263Z,6.76
2018-03-26T01:35:57.247Z,6.70
2018-03-26T01:36:57.227Z,6.71
2018-03-26T01:37:57.211Z,6.62
2018-03-26T01:38:57.186Z,6.70
2018-03-26T01:39:57.171Z,6.74
2018-03-26T01:40:57.156Z,6.79
2018-03-26T01:41:57.130Z,6.74
2018-03-26T01:42:57.113Z,6.80
2018-03-26T01:43:57.097Z,6.74
2018-03-26T01:44:57.077Z,6.80
2018-03-26T01:45:57.058Z,6.74
2018-03-26T01:46:57.036Z,6.79
2018-03-26T01:47:57.021Z,6.74
2018-03-26T01:48:57.000Z,6.73
2018-03-26T01:49:56.981Z,6.76
2018-03-26T01:50:56.964Z,6.76
2018-03-26T01:51:56.942Z,6.81
2018-03-26T01:52:56.923Z,6.71
2018-03-26T01:53:56.905Z,6.80
2018-03-26T01:54:56.883Z,6.81
2018-03-26T01:55:56.871Z,6.76
2018-03-26T01:56:56.847Z,6.74
2018-03-26T01:57:56.832Z,6.71
2018-03-26T01:58:56.827Z,6.56
2018-03-26T01:59:56.791Z,6.58
2018-03-26T02:00:56.774Z,6.66
2018-03-26T02:01:56.752Z,6.66
2018-03-26T02:02:56.736Z,6.58
2018-03-26T02:03:56.716Z,6.67
2018-03-26T02:04:56.704Z,6.59
2018-03-26T02:05:56.676Z,6.73
2018-03-26T02:06:56.661Z,6.77
2018-03-26T02:07:56.637Z,6.76
2018-03-26T02:08:56.619Z,6.73
2018-03-26T02:09:56.599Z,6.74
2018-03-26T02:10:56.581Z,6.76
2018-03-26T02:11:56.562Z,6.74
2018-03-26T02:12:56.545Z,6.69
2018-03-26T02:13:56.577Z,6.79
2018-03-26T02:14:56.504Z,6.74
2018-03-26T02:15:56.483Z,6.74
2018-03-26T02:16:56.463Z,6.74
2018-03-26T02:17:56.445Z,6.71
2018-03-26T02:18:56.428Z,6.73
2018-03-26T02:19:56.411Z,6.71
2018-03-26T02:20:56.389Z,6.79
2018-03-26T02:21:56.372Z,6.74
2018-03-26T02:22:56.354Z,6.74
2018-03-26T02:23:56.332Z,6.80
2018-03-26T02:24:56.315Z,6.70
2018-03-26T02:25:56.295Z,6.76
2018-03-26T02:26:56.274Z,6.73
2018-03-26T02:27:56.267Z,6.76
2018-03-26T02:28:56.235Z,6.77
2018-03-26T02:29:56.223Z,6.76
2018-03-26T02:30:56.203Z,6.73
2018-03-26T02:31:56.181Z,6.70
2018-03-26T02:32:56.165Z,6.74
2018-03-26T02:33:56.144Z,6.74
2018-03-26T02:34:56.126Z,6.64
2018-03-26T02:35:56.153Z,6.62
2018-03-26T02:36:56.083Z,6.64
2018-03-26T02:37:56.117Z,6.61
2018-03-26T02:38:56.050Z,6.61
2018-03-26T02:39:56.029Z,6.67
2018-03-26T02:40:56.011Z,6.66
2018-03-26T02:41:56.044Z,6.66
2018-03-26T02:42:55.982Z,6.71
2018-03-26T02:43:55.966Z,6.55
2018-03-26T02:44:55.931Z,6.56
2018-03-26T02:45:55.949Z,6.54
2018-03-26T02:46:55.897Z,6.58
2018-03-26T02:47:55.882Z,6.52
2018-03-26T02:48:55.857Z,6.55
2018-03-26T02:49:55.832Z,6.54
2018-03-26T02:50:55.822Z,6.59
2018-03-26T02:51:55.804Z,6.62
2018-03-26T02:52:55.778Z,6.58
2018-03-26T02:53:55.764Z,6.62
2018-03-26T02:54:55.754Z,6.61
2018-03-26T02:55:55.730Z,6.62
2018-03-26T02:56:55.701Z,6.58
2018-03-26T02:57:55.687Z,6.62
2018-03-26T02:58:55.666Z,6.46
2018-03-26T02:59:55.647Z,6.46
2018-03-26T03:00:55.629Z,6.56
2018-03-26T03:01:55.606Z,6.51
2018-03-26T03:02:55.590Z,6.54
2018-03-26T03:03:55.566Z,6.49
2018-03-26T03:04:55.564Z,6.51
2018-03-26T03:05:55.525Z,6.62
2018-03-26T03:06:55.517Z,6.56
2018-03-26T03:07:55.489Z,6.59
2018-03-26T03:08:55.473Z,6.62
2018-03-26T03:09:55.451Z,6.62
2018-03-26T03:10:55.429Z,6.62
2018-03-26T03:11:55.412Z,6.62
2018-03-26T03:12:55.398Z,6.67
2018-03-26T03:13:55.374Z,6.67
2018-03-26T03:14:55.354Z,6.64
2018-03-26T03:15:55.334Z,6.64
2018-03-26T03:16:55.416Z,6.64
2018-03-26T03:17:55.297Z,6.64
2018-03-26T03:18:55.280Z,6.59
2018-03-26T03:19:55.260Z,6.62
2018-03-26T03:20:55.241Z,6.56
2018-03-26T03:21:55.224Z,6.61
2018-03-26T03:22:55.200Z,6.64
2018-03-26T03:23:55.184Z,6.59
2018-03-26T03:24:55.179Z,6.64
2018-03-26T03:25:55.143Z,6.67
2018-03-26T03:26:55.123Z,6.69
2018-03-26T03:27:55.105Z,6.62
2018-03-26T03:28:55.083Z,6.61
2018-03-26T03:29:55.067Z,6.61
2018-03-26T03:30:55.057Z,6.62
2018-03-26T03:31:55.032Z,6.74
2018-03-26T03:32:55.013Z,6.74
2018-03-26T03:33:54.989Z,6.71
2018-03-26T03:34:54.971Z,6.76
2018-03-26T03:35:54.953Z,6.74
2018-03-26T03:36:54.934Z,6.76
2018-03-26T03:37:54.913Z,6.74
2018-03-26T03:38:54.892Z,6.74
2018-03-26T03:39:54.873Z,6.77
2018-03-26T03:40:54.858Z,6.77
2018-03-26T03:41:54.842Z,6.76
2018-03-26T03:42:54.816Z,6.74
2018-03-26T03:43:54.798Z,6.74
2018-03-26T03:44:54.779Z,6.76
2018-03-26T03:45:54.857Z,6.77
2018-03-26T03:46:54.739Z,6.76
2018-03-26T03:47:54.724Z,6.74
2018-03-26T03:48:54.707Z,6.70
2018-03-26T03:49:54.782Z,6.74
2018-03-26T03:50:54.666Z,6.74
2018-03-26T03:52:18.414Z,6.76
2018-03-26T03:53:18.207Z,6.77
2018-03-26T03:54:18.188Z,6.79
2018-03-26T03:55:18.161Z,6.70
2018-03-26T03:56:18.151Z,6.70
2018-03-26T03:57:18.124Z,6.66
2018-03-26T03:58:18.108Z,6.59
2018-03-26T03:59:18.086Z,6.71
2018-03-26T04:00:18.063Z,6.74
2018-03-26T04:01:18.045Z,6.67
2018-03-26T04:02:18.024Z,6.66
2018-03-26T04:03:18.011Z,6.71
2018-03-26T04:04:17.986Z,6.71
2018-03-26T04:05:17.969Z,6.67
2018-03-26T04:06:17.949Z,6.66
2018-03-26T04:07:17.932Z,6.64
2018-03-26T04:08:17.923Z,6.61
2018-03-26T04:09:17.894Z,6.64
2018-03-26T04:10:17.875Z,6.54
2018-03-26T04:11:17.854Z,6.59
2018-03-26T04:12:17.835Z,6.56
2018-03-26T04:13:17.820Z,6.55
2018-03-26T04:14:17.802Z,6.61
2018-03-26T04:15:17.781Z,6.59
2018-03-26T04:16:17.768Z,6.67
2018-03-26T04:17:17.738Z,6.61
2018-03-26T04:18:17.724Z,6.61
2018-03-26T04:19:17.702Z,6.55
2018-03-26T04:20:17.687Z,6.55
2018-03-26T04:21:17.666Z,6.54
2018-03-26T04:22:17.646Z,6.49
2018-03-26T04:23:17.623Z,6.46
2018-03-26T04:24:17.606Z,6.44
2018-03-26T04:25:17.586Z,6.54
2018-03-26T04:26:17.568Z,6.55
2018-03-26T04:27:17.550Z,6.55
2018-03-26T04:28:17.527Z,6.59
2018-03-26T04:29:17.512Z,6.52
2018-03-26T04:30:17.489Z,6.56
2018-03-26T04:31:17.473Z,6.52
2018-03-26T04:32:17.454Z,6.58
2018-03-26T04:33:17.438Z,6.59
2018-03-26T04:34:17.416Z,6.56
2018-03-26T04:35:17.395Z,6.56
2018-03-26T04:36:17.371Z,6.62
2018-03-26T04:37:17.368Z,6.62
2018-03-26T04:38:17.339Z,6.55
2018-03-26T04:39:17.316Z,6.58
2018-03-26T04:40:17.301Z,6.58
2018-03-26T04:41:17.283Z,6.55
2018-03-26T04:42:17.259Z,6.51
2018-03-26T04:43:17.240Z,6.43
2018-03-26T04:44:17.219Z,6.33
2018-03-26T04:45:17.205Z,6.36
2018-03-26T04:46:17.184Z,6.28
2018-03-26T04:47:17.165Z,6.25
2018-03-26T04:48:17.144Z,6.36
2018-03-26T04:49:17.135Z,6.33
2018-03-26T04:50:17.108Z,6.33
2018-03-26T04:51:17.085Z,6.37
2018-03-26T04:52:17.067Z,6.40
2018-03-26T04:53:17.048Z,6.48
2018-03-26T04:54:17.029Z,6.51
2018-03-26T04:55:17.008Z,6.37
2018-03-26T04:56:16.988Z,6.40
2018-03-26T04:57:16.977Z,6.33
2018-03-26T04:58:16.949Z,6.44
2018-03-26T04:59:16.932Z,6.38
2018-03-26T05:00:16.914Z,6.48
2018-03-26T05:01:16.894Z,6.43
2018-03-26T05:02:16.920Z,6.38
2018-03-26T05:03:16.871Z,6.51
2018-03-26T05:04:16.844Z,6.43
2018-03-26T05:05:16.818Z,6.44
2018-03-26T05:06:16.800Z,6.48
2018-03-26T05:07:16.782Z,6.44
2018-03-26T05:08:16.760Z,6.52
2018-03-26T05:09:16.743Z,6.48
2018-03-26T05:10:16.774Z,6.44
2018-03-26T05:11:16.703Z,6.36
2018-03-26T05:12:16.757Z,6.36
2018-03-26T05:13:16.664Z,6.36
2018-03-26T05:14:16.655Z,6.30
2018-03-26T05:15:16.627Z,6.41
2018-03-26T05:16:16.705Z,6.34
2018-03-26T05:17:16.583Z,6.34
2018-03-26T05:18:16.662Z,6.34
2018-03-26T05:19:16.547Z,6.38
2018-03-26T05:20:16.527Z,6.41
2018-03-26T05:21:16.513Z,6.41
2018-03-26T05:22:16.539Z,6.36
2018-03-26T05:23:16.467Z,6.33
2018-03-26T05:24:16.716Z,6.34
2018-03-26T05:25:16.429Z,6.36
2018-03-26T05:26:16.463Z,6.34
2018-03-26T05:27:16.391Z,6.17
2018-03-26T05:28:16.474Z,6.11
2018-03-26T05:29:16.357Z,6.03
2018-03-26T05:30:16.404Z,5.90
2018-03-26T05:31:16.317Z,5.94
2018-03-26T05:32:16.301Z,5.83
2018-03-26T05:33:16.275Z,5.83
2018-03-26T05:34:16.306Z,5.81
2018-03-26T05:35:16.241Z,5.75
2018-03-26T05:36:16.222Z,5.78
2018-03-26T05:37:16.199Z,5.72
2018-03-26T05:38:16.190Z,5.68
2018-03-26T05:39:16.157Z,5.76
2018-03-26T05:40:16.241Z,5.85
2018-03-26T05:41:16.118Z,5.78
2018-03-26T05:42:16.112Z,5.93
2018-03-26T05:43:16.079Z,5.94
2018-03-26T05:44:16.063Z,5.96
2018-03-26T05:45:16.045Z,6.01
2018-03-26T05:46:16.073Z,6.04
2018-03-26T05:47:16.004Z,6.08
2018-03-26T05:48:16.094Z,6.14
2018-03-26T05:49:15.970Z,6.17
2018-03-26T05:50:16.001Z,6.18
2018-03-26T05:51:15.934Z,6.17
2018-03-26T05:52:15.960Z,6.28
2018-03-26T05:53:15.886Z,6.30
2018-03-26T05:54:15.866Z,6.33
2018-03-26T05:55:15.872Z,6.36
2018-03-26T05:56:15.827Z,6.34
2018-03-26T05:57:15.811Z,6.34
2018-03-26T05:58:15.788Z,6.40
2018-03-26T05:59:15.768Z,6.34
2018-03-26T06:00:15.753Z,6.37
2018-03-26T06:01:15.731Z,6.44
2018-03-26T06:02:15.711Z,6.41
2018-03-26T06:03:15.692Z,6.46
2018-03-26T06:04:15.684Z,6.44
2018-03-26T06:05:15.657Z,6.44
2018-03-26T06:06:15.642Z,6.55
2018-03-26T06:07:15.618Z,6.54
2018-03-26T06:08:15.599Z,6.49
2018-03-26T06:09:15.585Z,6.51
2018-03-26T06:10:15.558Z,6.55
2018-03-26T06:11:15.542Z,6.55
2018-03-26T06:12:15.524Z,6.54
2018-03-26T06:13:15.501Z,6.56
2018-03-26T06:14:15.483Z,6.64
2018-03-26T06:15:15.465Z,6.55
2018-03-26T06:16:15.442Z,6.59
2018-03-26T06:17:15.423Z,6.59
2018-03-26T06:18:15.410Z,6.59
2018-03-26T06:19:15.382Z,6.73
2018-03-26T06:20:15.372Z,6.69
2018-03-26T06:21:15.355Z,6.70
2018-03-26T06:22:15.331Z,6.79
2018-03-26T06:23:15.330Z,6.76
2018-03-26T06:24:15.286Z,6.74
2018-03-26T06:25:15.270Z,6.77
2018-03-26T06:26:15.248Z,6.89
2018-03-26T06:27:15.228Z,6.69
2018-03-26T06:28:15.212Z,6.80
2018-03-26T06:29:15.192Z,6.80
2018-03-26T06:30:15.174Z,6.87
2018-03-26T06:31:15.160Z,6.76
2018-03-26T06:32:15.138Z,6.91
2018-03-26T06:33:15.118Z,6.85
2018-03-26T06:34:15.102Z,6.88
2018-03-26T06:35:15.083Z,6.89
2018-03-26T06:36:15.060Z,6.89
2018-03-26T06:37:15.052Z,6.91
2018-03-26T06:38:15.020Z,6.89
2018-03-26T06:39:15.002Z,6.97
2018-03-26T06:40:14.983Z,6.98
2018-03-26T06:41:14.964Z,6.95
2018-03-26T06:42:14.944Z,6.97
2018-03-26T06:43:14.932Z,6.97
2018-03-26T06:44:14.930Z,7.05
2018-03-26T06:45:14.894Z,7.02
2018-03-26T06:46:14.874Z,7.12
2018-03-26T06:47:14.941Z,7.07
2018-03-26T06:48:14.834Z,7.10
2018-03-26T06:49:14.812Z,7.21
2018-03-26T06:50:14.850Z,7.12
2018-03-26T06:51:14.782Z,7.13
2018-03-26T06:52:14.766Z,7.10
2018-03-26T06:53:14.739Z,7.23
2018-03-26T06:54:14.716Z,7.21
2018-03-26T06:55:14.703Z,7.24
2018-03-26T06:56:14.691Z,7.28
2018-03-26T06:57:14.672Z,7.25
2018-03-26T06:58:14.740Z,7.28
2018-03-26T06:59:14.621Z,7.34
2018-03-26T07:00:14.656Z,7.27
2018-03-26T07:01:14.588Z,7.37
2018-03-26T07:02:14.568Z,7.35
2018-03-26T07:03:14.550Z,7.37
2018-03-26T07:04:14.642Z,7.43
2018-03-26T07:05:14.512Z,7.40
2018-03-26T07:06:14.502Z,7.43
2018-03-26T07:07:14.470Z,7.53
2018-03-26T07:08:14.604Z,7.49
2018-03-26T07:09:14.435Z,7.52
2018-03-26T07:10:14.418Z,7.50
2018-03-26T07:11:14.398Z,7.50
2018-03-26T07:12:14.384Z,7.50
2018-03-26T07:13:14.388Z,7.48
2018-03-26T07:14:14.460Z,7.55
2018-03-26T07:15:14.323Z,7.52
2018-03-26T07:16:14.309Z,7.58
2018-03-26T07:17:14.285Z,7.55
2018-03-26T07:18:14.445Z,7.61
2018-03-26T07:19:14.250Z,7.69
2018-03-26T07:20:14.231Z,7.69
2018-03-26T07:21:14.215Z,7.74
2018-03-26T07:22:14.295Z,7.71
2018-03-26T07:23:14.175Z,7.74
2018-03-26T07:24:14.262Z,7.71
2018-03-26T07:25:14.139Z,7.77
2018-03-26T07:26:14.222Z,7.72
2018-03-26T07:27:14.143Z,7.79
2018-03-26T07:28:14.176Z,7.75
2018-03-26T07:29:14.063Z,7.80
2018-03-26T07:30:14.047Z,7.77
2018-03-26T07:31:14.029Z,7.75
2018-03-26T07:32:14.016Z,7.85
2018-03-26T07:33:13.990Z,7.85
2018-03-26T07:34:14.085Z,7.83
2018-03-26T07:35:13.958Z,7.90
2018-03-26T07:36:13.957Z,7.89
2018-03-26T07:37:13.921Z,7.85
2018-03-26T07:38:14.059Z,7.98
2018-03-26T07:39:13.881Z,8.01
2018-03-26T07:40:13.875Z,7.92
2018-03-26T07:41:13.882Z,7.98
2018-03-26T07:42:13.868Z,8.01
2018-03-26T07:43:13.813Z,7.98
2018-03-26T07:44:13.819Z,8.00
2018-03-26T07:45:13.780Z,8.04
2018-03-26T07:46:13.757Z,8.02
2018-03-26T07:47:13.732Z,8.02
2018-03-26T07:48:13.715Z,8.01
2018-03-26T07:49:13.700Z,8.01
2018-03-26T07:50:13.676Z,8.07
2018-03-26T07:51:13.658Z,8.08
2018-03-26T07:52:13.640Z,8.12
2018-03-26T07:53:13.623Z,8.11
2018-03-26T07:54:13.605Z,8.10
2018-03-26T07:55:13.585Z,8.16
2018-03-26T07:56:13.575Z,8.18
2018-03-26T07:57:13.550Z,8.12
2018-03-26T07:58:13.533Z,8.28
2018-03-26T07:59:13.511Z,8.23
2018-03-26T08:00:13.494Z,8.23
2018-03-26T08:01:13.472Z,8.22
2018-03-26T08:02:13.459Z,8.20
2018-03-26T08:03:13.440Z,8.26
2018-03-26T08:04:13.418Z,8.28
2018-03-26T08:05:13.404Z,8.26
2018-03-26T08:06:13.391Z,8.26
2018-03-26T08:07:13.366Z,8.23
2018-03-26T08:08:13.350Z,8.30
2018-03-26T08:09:13.329Z,8.22
2018-03-26T08:10:13.313Z,8.23
2018-03-26T08:11:13.293Z,8.22
2018-03-26T08:12:13.274Z,8.29
2018-03-26T08:13:13.258Z,8.25
2018-03-26T08:14:13.242Z,8.30
2018-03-26T08:15:13.225Z,8.23
2018-03-26T08:16:13.201Z,8.26
2018-03-26T08:17:13.216Z,8.23
2018-03-26T08:18:13.171Z,8.40
2018-03-26T08:19:13.150Z,8.28
2018-03-26T08:20:13.145Z,8.36
2018-03-26T08:21:13.113Z,8.23
2018-03-26T08:22:13.092Z,8.25
2018-03-26T08:23:13.084Z,8.28
2018-03-26T08:24:13.059Z,8.25
2018-03-26T08:25:13.043Z,8.28
2018-03-26T08:26:13.028Z,8.23
2018-03-26T08:27:13.004Z,8.36
2018-03-26T08:28:12.986Z,8.25
2018-03-26T08:29:12.968Z,8.23
2018-03-26T08:30:12.951Z,8.34
2018-03-26T08:31:12.933Z,8.37
2018-03-26T08:32:12.917Z,8.40
2018-03-26T08:33:12.897Z,8.45
2018-03-26T08:34:12.880Z,8.37
2018-03-26T08:35:12.859Z,8.33
2018-03-26T08:36:12.842Z,8.41
2018-03-26T08:37:12.827Z,8.40
2018-03-26T08:38:12.803Z,8.41
2018-03-26T08:39:12.790Z,8.43
2018-03-26T08:40:12.774Z,8.37
2018-03-26T08:41:12.754Z,8.36
2018-03-26T08:42:12.800Z,8.38
2018-03-26T08:43:12.717Z,8.38
2018-03-26T08:44:12.701Z,8.40
2018-03-26T08:45:12.682Z,8.38
2018-03-26T08:46:12.796Z,8.44
2018-03-26T08:47:12.643Z,8.40
2018-03-26T08:48:12.635Z,8.40
2018-03-26T08:49:12.607Z,8.36
2018-03-26T08:50:12.757Z,8.40
2018-03-26T08:51:12.573Z,8.45
2018-03-26T08:52:12.701Z,8.45
2018-03-26T08:53:12.535Z,8.43
2018-03-26T08:54:12.538Z,8.48
2018-03-26T08:55:12.505Z,8.52
2018-03-26T08:56:12.544Z,8.53
2018-03-26T08:57:12.464Z,8.45
2018-03-26T08:58:12.631Z,8.50
2018-03-26T08:59:12.436Z,8.56
2018-03-26T09:00:12.411Z,8.56
2018-03-26T09:01:12.398Z,8.61
2018-03-26T09:02:12.382Z,8.55
2018-03-26T09:03:12.356Z,8.59
2018-03-26T09:04:12.353Z,8.61
2018-03-26T09:05:12.321Z,8.52
2018-03-26T09:06:12.385Z,8.53
2018-03-26T09:07:12.283Z,8.48
2018-03-26T09:08:12.420Z,8.45
2018-03-26T09:09:12.249Z,8.55
2018-03-26T09:10:12.333Z,8.59
2018-03-26T09:11:12.212Z,8.68
2018-03-26T09:12:12.206Z,8.70
2018-03-26T09:13:12.178Z,8.76
2018-03-26T09:14:12.163Z,8.77
2018-03-26T09:15:12.144Z,8.77
2018-03-26T09:16:12.142Z,8.77
2018-03-26T09:17:12.111Z,8.79
2018-03-26T09:18:12.205Z,8.80
2018-03-26T09:19:12.074Z,8.74
2018-03-26T09:20:12.059Z,8.83
2018-03-26T09:21:12.038Z,8.80
2018-03-26T09:22:12.167Z,8.84
2018-03-26T09:23:12.003Z,8.84
2018-03-26T09:24:11.985Z,8.83
2018-03-26T09:25:11.970Z,8.91
2018-03-26T09:26:12.076Z,8.96
2018-03-26T09:27:11.935Z,8.91
2018-03-26T09:28:12.007Z,9.04
2018-03-26T09:29:11.896Z,9.14
2018-03-26T09:30:11.938Z,9.15
2018-03-26T09:31:11.867Z,9.14
2018-03-26T09:32:11.844Z,9.20
2018-03-26T09:33:11.824Z,9.23
2018-03-26T09:34:11.809Z,9.18
2018-03-26T09:35:11.793Z,9.24
2018-03-26T09:36:11.774Z,9.23
2018-03-26T09:37:11.764Z,9.23
2018-03-26T09:38:11.750Z,9.36
2018-03-26T09:39:11.720Z,9.33
2018-03-26T09:40:11.707Z,9.38
2018-03-26T09:41:11.685Z,9.40
2018-03-26T09:42:11.671Z,9.39
2018-03-26T09:43:11.651Z,9.39
2018-03-26T09:44:11.635Z,9.42
2018-03-26T09:45:11.625Z,9.51
2018-03-26T09:46:11.600Z,9.53
2018-03-26T09:47:11.584Z,9.60
2018-03-26T09:48:11.580Z,9.61
2018-03-26T09:49:11.571Z,9.68
2018-03-26T09:50:11.532Z,9.79
2018-03-26T09:51:11.517Z,9.83
2018-03-26T09:52:11.501Z,9.94
2018-03-26T09:53:11.486Z,9.93
2018-03-26T09:54:11.469Z,9.93
2018-03-26T09:55:11.453Z,10.02
2018-03-26T09:56:11.434Z,10.09
2018-03-26T09:57:11.420Z,10.12
2018-03-26T09:58:11.407Z,10.18
2018-03-26T09:59:11.384Z,10.20
2018-03-26T10:00:11.366Z,10.22
2018-03-26T10:01:11.351Z,10.18
2018-03-26T10:02:11.335Z,10.25
2018-03-26T10:03:11.324Z,10.26
2018-03-26T10:04:11.307Z,10.25
2018-03-26T10:05:11.289Z,10.25
2018-03-26T10:06:11.308Z,10.26
2018-03-26T10:07:11.253Z,10.25
2018-03-26T10:08:11.241Z,10.26
2018-03-26T10:09:11.221Z,10.26
2018-03-26T10:10:11.204Z,10.32
2018-03-26T10:11:11.186Z,10.34
2018-03-26T10:12:11.170Z,10.45
2018-03-26T10:13:11.154Z,10.47
2018-03-26T10:14:11.152Z,10.52
2018-03-26T10:15:11.125Z,10.55
2018-03-26T10:16:11.111Z,10.55
2018-03-26T10:17:11.107Z,10.60
2018-03-26T10:18:11.073Z,10.64
2018-03-26T10:19:11.059Z,10.63
2018-03-26T10:20:11.050Z,10.47
2018-03-26T10:21:11.027Z,10.55
2018-03-26T10:22:11.014Z,10.56
2018-03-26T10:23:10.996Z,10.60
2018-03-26T10:24:10.983Z,10.67
2018-03-26T10:25:10.965Z,10.59
2018-03-26T10:26:11.003Z,10.63
2018-03-26T10:27:10.936Z,10.64
2018-03-26T10:28:10.972Z,10.73
2018-03-26T10:29:10.903Z,10.71
2018-03-26T10:30:10.985Z,10.73
2018-03-26T10:31:10.881Z,10.74
2018-03-26T10:32:10.964Z,10.71
2018-03-26T10:33:10.842Z,10.63
2018-03-26T10:34:10.922Z,10.64
2018-03-26T10:35:10.811Z,10.66
2018-03-26T10:36:10.848Z,10.66
2018-03-26T10:37:10.784Z,10.59
2018-03-26T10:38:10.797Z,10.64
2018-03-26T10:39:10.751Z,10.63
2018-03-26T10:40:10.795Z,10.61
2018-03-26T10:41:10.714Z,10.61
2018-03-26T10:42:10.712Z,10.67
2018-03-26T10:43:10.687Z,10.63
2018-03-26T10:44:10.773Z,10.61
2018-03-26T10:45:10.653Z,10.67
2018-03-26T10:46:10.737Z,10.55
2018-03-26T10:47:10.634Z,10.60
2018-03-26T10:48:10.714Z,10.55
2018-03-26T10:49:10.598Z,10.53
2018-03-26T10:50:10.580Z,10.63
2018-03-26T10:51:10.563Z,10.63
2018-03-26T10:52:10.585Z,10.63
2018-03-26T10:53:10.532Z,10.55
2018-03-26T10:54:10.576Z,10.66
2018-03-26T10:55:10.500Z,10.64
2018-03-26T10:56:10.484Z,10.66
2018-03-26T10:57:10.467Z,10.73
2018-03-26T10:58:10.503Z,10.74
2018-03-26T10:59:10.436Z,10.81
2018-03-26T11:00:10.420Z,10.73
2018-03-26T11:01:10.426Z,10.73
2018-03-26T11:02:10.389Z,10.63
2018-03-26T11:03:10.429Z,10.63
2018-03-26T11:04:10.364Z,10.66
2018-03-26T11:05:10.343Z,10.67
2018-03-26T11:06:10.380Z,10.59
2018-03-26T11:07:10.311Z,10.60
2018-03-26T11:08:10.318Z,10.61
2018-03-26T11:09:10.281Z,10.68
2018-03-26T11:10:10.273Z,10.52
2018-03-26T11:11:10.250Z,10.45
2018-03-26T11:12:10.238Z,10.34
2018-03-26T11:13:10.223Z,10.36
2018-03-26T11:14:10.205Z,10.29
2018-03-26T11:15:10.197Z,10.25
2018-03-26T11:16:10.171Z,10.23
2018-03-26T11:17:10.156Z,10.27
2018-03-26T11:18:10.139Z,10.29
2018-03-26T11:19:10.129Z,10.38
2018-03-26T11:20:10.110Z,10.34
2018-03-26T11:21:10.093Z,10.26
2018-03-26T11:22:10.075Z,10.25
2018-03-26T11:23:10.065Z,10.23
2018-03-26T11:24:10.045Z,10.27
2018-03-26T11:25:10.021Z,10.26
2018-03-26T11:26:10.010Z,10.22
2018-03-26T11:27:09.997Z,10.14
2018-03-26T11:28:10.034Z,10.08
2018-03-26T11:29:09.978Z,10.11
2018-03-26T11:30:09.956Z,9.96
2018-03-26T11:31:09.931Z,10.04
2018-03-26T11:32:09.913Z,9.94
2018-03-26T11:33:09.899Z,9.94
2018-03-26T11:34:09.888Z,9.84
2018-03-26T11:35:09.864Z,9.89
2018-03-26T11:36:09.852Z,9.93
2018-03-26T11:37:09.835Z,9.87
2018-03-26T11:38:09.815Z,9.76
2018-03-26T11:39:09.801Z,9.68
2018-03-26T11:40:09.784Z,9.68
2018-03-26T11:41:09.795Z,9.58
2018-03-26T11:42:09.754Z,9.56
2018-03-26T11:43:09.792Z,9.56
2018-03-26T11:44:09.724Z,9.46
2018-03-26T11:45:09.708Z,9.39
2018-03-26T11:46:09.746Z,9.38
2018-03-26T11:47:09.668Z,9.36
2018-03-26T11:48:09.664Z,9.39
2018-03-26T11:49:09.640Z,9.36
2018-03-26T11:50:09.624Z,9.38
2018-03-26T11:51:09.602Z,9.43
2018-03-26T11:52:09.593Z,9.43
2018-03-26T11:53:09.569Z,9.35
2018-03-26T11:54:09.556Z,9.33
2018-03-26T11:55:09.534Z,9.38
2018-03-26T11:56:09.520Z,9.39
2018-03-26T11:57:09.505Z,9.33
2018-03-26T11:58:09.484Z,9.40
2018-03-26T11:59:09.476Z,9.40
2018-03-26T12:00:09.455Z,9.38
2018-03-26T12:01:09.445Z,9.28
2018-03-26T12:02:09.458Z,9.23
2018-03-26T12:03:09.401Z,9.33
2018-03-26T12:04:09.385Z,9.23
2018-03-26T12:05:09.368Z,9.23
2018-03-26T12:06:09.352Z,9.21
2018-03-26T12:07:09.334Z,9.21
2018-03-26T12:08:09.313Z,9.18
2018-03-26T12:09:09.319Z,9.18
2018-03-26T12:10:09.280Z,9.17
2018-03-26T12:11:09.263Z,9.13
2018-03-26T12:12:09.253Z,9.13
2018-03-26T12:13:09.268Z,9.15
2018-03-26T12:14:09.213Z,9.13
2018-03-26T12:15:09.193Z,9.13
2018-03-26T12:16:09.181Z,9.15
2018-03-26T12:17:09.160Z,9.15
2018-03-26T12:18:09.141Z,9.18
2018-03-26T12:19:09.126Z,9.08
2018-03-26T12:20:09.109Z,9.08
2018-03-26T12:21:09.091Z,8.92
2018-03-26T12:22:09.074Z,8.95
2018-03-26T12:23:09.062Z,8.91
2018-03-26T12:24:09.043Z,8.91
2018-03-26T12:25:09.027Z,8.92
2018-03-26T12:26:09.014Z,8.84
2018-03-26T12:27:08.989Z,8.76
2018-03-26T12:28:08.973Z,8.74
2018-03-26T12:29:08.955Z,8.76
2018-03-26T12:30:08.937Z,8.74
2018-03-26T12:31:08.922Z,8.68
2018-03-26T12:32:08.905Z,8.63
2018-03-26T12:33:08.887Z,8.56
2018-03-26T12:34:08.868Z,8.62
2018-03-26T12:35:08.848Z,8.68
2018-03-26T12:36:08.842Z,8.73
2018-03-26T12:37:08.813Z,8.70
2018-03-26T12:38:08.796Z,8.76
2018-03-26T12:39:08.777Z,8.70
2018-03-26T12:40:08.761Z,8.80
2018-03-26T12:41:08.765Z,8.81
2018-03-26T12:42:08.727Z,8.74
2018-03-26T12:43:08.706Z,8.79
2018-03-26T12:44:08.693Z,8.81
2018-03-26T12:45:08.678Z,8.77
2018-03-26T12:46:08.667Z,8.86
2018-03-26T12:47:08.644Z,8.87
2018-03-26T12:48:08.619Z,8.81
2018-03-26T12:49:08.607Z,8.81
2018-03-26T12:50:08.585Z,8.87
2018-03-26T12:51:08.564Z,8.86
2018-03-26T12:52:08.566Z,8.81
2018-03-26T12:53:08.530Z,8.80
2018-03-26T12:54:08.544Z,8.81
2018-03-26T12:55:08.502Z,8.81
2018-03-26T12:56:08.477Z,8.83
2018-03-26T12:57:08.461Z,8.76
2018-03-26T12:58:08.440Z,8.80
2018-03-26T12:59:08.432Z,8.79
2018-03-26T13:00:08.435Z,8.70
2018-03-26T13:01:08.388Z,8.74
2018-03-26T13:02:08.371Z,8.81
2018-03-26T13:03:08.357Z,8.79
2018-03-26T13:04:08.339Z,8.76
2018-03-26T13:05:08.356Z,8.74
2018-03-26T13:06:08.305Z,8.76
2018-03-26T13:07:08.284Z,8.86
2018-03-26T13:08:08.264Z,8.81
2018-03-26T13:09:08.248Z,8.87
2018-03-26T13:10:08.234Z,8.87
2018-03-26T13:11:08.212Z,8.81
2018-03-26T13:12:08.198Z,8.74
2018-03-26T13:13:08.186Z,8.70
2018-03-26T13:14:08.160Z,8.76
2018-03-26T13:15:08.140Z,8.70
2018-03-26T13:16:08.134Z,8.70